createdAt,value
2023-04-20T00:00:34.719Z,12.48
2023-04-20T00:03:40.417Z,12.42
2023-04-20T00:06:46.416Z,12.46
2023-04-20T00:09:51.932Z,12.41
2023-04-20T00:12:57.414Z,12.36
2023-04-20T00:16:03.436Z,12.34
2023-04-20T00:19:09.683Z,12.24
2023-04-20T00:22:15.455Z,12.12
2023-04-20T00:25:21.461Z,12.06
2023-04-20T00:28:27.406Z,12.10
2023-04-20T00:31:33.273Z,12.00
2023-04-20T00:34:38.776Z,12.05
2023-04-20T00:37:44.289Z,12.20
2023-04-20T00:40:53.505Z,12.35
2023-04-20T00:43:59.779Z,12.44
2023-04-20T00:47:05.688Z,12.53
2023-04-20T00:50:12.183Z,12.55
2023-04-20T00:53:19.626Z,12.55
2023-04-20T00:56:25.365Z,12.21
2023-04-20T00:59:31.382Z,12.25
2023-04-20T01:02:38.536Z,12.18
2023-04-20T01:05:46.718Z,11.95
2023-04-20T01:08:53.044Z,11.68
2023-04-20T01:11:59.056Z,11.59
2023-04-20T01:15:08.913Z,11.51
2023-04-20T01:18:15.549Z,11.56
2023-04-20T01:21:24.447Z,11.51
2023-04-20T01:24:30.984Z,11.76
2023-04-20T01:27:38.055Z,11.70
2023-04-20T01:30:43.545Z,11.63
2023-04-20T01:33:49.194Z,11.77
2023-04-20T01:36:54.776Z,11.65
2023-04-20T01:40:00.648Z,11.67
2023-04-20T01:43:06.281Z,11.71
2023-04-20T01:46:11.880Z,11.67
2023-04-20T01:49:19.276Z,11.71
2023-04-20T01:52:25.157Z,11.51
2023-04-20T01:55:31.358Z,11.46
2023-04-20T01:58:37.085Z,11.56
2023-04-20T02:01:42.710Z,11.65
2023-04-20T02:04:48.861Z,11.61
2023-04-20T02:07:54.342Z,11.49
2023-04-20T02:11:00.368Z,11.40
2023-04-20T02:14:05.888Z,11.66
2023-04-20T02:17:11.941Z,11.66
2023-04-20T02:20:20.160Z,11.74
2023-04-20T02:23:26.394Z,11.70
2023-04-20T02:26:35.256Z,11.73
2023-04-20T02:29:41.753Z,11.69
2023-04-20T02:32:47.621Z,11.49
2023-04-20T02:35:54.786Z,11.49
2023-04-20T02:39:00.946Z,11.62
2023-04-20T02:42:06.698Z,11.59
2023-04-20T02:45:12.562Z,11.57
2023-04-20T02:48:21.376Z,11.45
2023-04-20T02:51:27.696Z,11.32
2023-04-20T02:54:34.821Z,11.27
2023-04-20T02:57:41.349Z,11.30
2023-04-20T03:00:47.808Z,11.33
2023-04-20T03:03:54.873Z,11.39
2023-04-20T03:07:01.668Z,11.41
2023-04-20T03:10:11.424Z,11.42
2023-04-20T03:13:30.618Z,11.36
2023-04-20T03:16:39.592Z,11.34
2023-04-20T03:19:44.832Z,11.51
2023-04-20T03:22:50.456Z,11.47
2023-04-20T03:25:58.597Z,11.63
2023-04-20T03:29:30.980Z,11.76
2023-04-20T03:32:36.880Z,11.63
2023-04-20T03:35:43.563Z,11.44
2023-04-20T03:38:49.113Z,11.49
2023-04-20T03:41:54.716Z,11.42
2023-04-20T03:45:00.917Z,11.46
2023-04-20T03:48:06.881Z,11.57
2023-04-20T03:51:12.701Z,11.46
2023-04-20T03:54:18.487Z,11.55
2023-04-20T03:57:23.952Z,11.53
2023-04-20T04:00:30.692Z,11.58
2023-04-20T04:03:46.041Z,11.54
2023-04-20T04:06:52.234Z,11.46
2023-04-20T04:09:58.306Z,11.38
2023-04-20T04:13:04.227Z,11.34
2023-04-20T04:16:10.704Z,11.25
2023-04-20T04:19:17.957Z,11.36
2023-04-20T04:22:24.730Z,11.35
2023-04-20T04:25:51.517Z,11.47
2023-04-20T04:29:04.718Z,11.32
2023-04-20T04:32:12.793Z,11.32
2023-04-20T04:35:18.406Z,11.24
2023-04-20T04:38:24.891Z,11.27
2023-04-20T04:41:30.734Z,11.31
2023-04-20T04:44:51.957Z,11.30
2023-04-20T04:48:05.527Z,11.38
2023-04-20T04:51:13.031Z,11.23
2023-04-20T04:54:18.431Z,11.42
2023-04-20T04:57:24.048Z,11.35
2023-04-20T05:00:29.721Z,11.33
2023-04-20T05:03:35.188Z,11.38
2023-04-20T05:06:41.017Z,11.22
2023-04-20T05:09:46.146Z,11.25
2023-04-20T05:12:52.710Z,11.17
2023-04-20T05:15:58.627Z,11.29
2023-04-20T05:19:04.378Z,11.30
2023-04-20T05:22:09.920Z,11.35
2023-04-20T05:25:15.683Z,11.28
2023-04-20T05:28:21.482Z,11.36
2023-04-20T05:31:27.124Z,11.49
2023-04-20T05:34:32.932Z,11.71
2023-04-20T05:37:38.536Z,11.85
2023-04-20T05:40:43.794Z,11.79
2023-04-20T05:43:49.035Z,11.92
2023-04-20T05:46:53.985Z,12.26
2023-04-20T05:49:59.510Z,12.39
2023-04-20T05:53:04.631Z,12.42
2023-04-20T05:56:10.370Z,12.45
2023-04-20T05:59:17.615Z,12.51
2023-04-20T06:02:23.586Z,12.46
2023-04-20T06:05:29.215Z,12.33
2023-04-20T06:08:34.971Z,12.40
2023-04-20T06:11:40.672Z,12.58
2023-04-20T06:14:46.012Z,12.43
2023-04-20T06:17:51.776Z,12.23
2023-04-20T06:20:57.619Z,12.20
2023-04-20T06:24:03.259Z,12.14
2023-04-20T06:27:09.735Z,12.07
2023-04-20T06:30:15.432Z,12.02
2023-04-20T06:33:21.051Z,11.92
2023-04-20T06:36:28.230Z,11.85
2023-04-20T06:39:33.789Z,11.82
2023-04-20T06:42:39.494Z,11.79
2023-04-20T06:45:44.807Z,11.74
2023-04-20T06:48:50.934Z,11.72
2023-04-20T06:51:56.695Z,11.80
2023-04-20T06:55:02.415Z,11.78
2023-04-20T06:58:08.202Z,11.81
2023-04-20T07:01:13.896Z,11.78
2023-04-20T07:04:19.740Z,11.78
2023-04-20T07:07:25.310Z,11.83
2023-04-20T07:10:30.763Z,11.93
2023-04-20T07:13:36.080Z,11.96
2023-04-20T07:16:41.880Z,12.08
2023-04-20T07:19:47.460Z,12.18
2023-04-20T07:22:52.787Z,12.19
2023-04-20T07:25:58.712Z,12.33
2023-04-20T07:29:04.366Z,12.39
2023-04-20T07:32:09.928Z,12.35
2023-04-20T07:35:15.445Z,12.41
2023-04-20T07:38:20.803Z,12.41
2023-04-20T07:41:26.318Z,12.41
2023-04-20T07:44:32.073Z,12.39
2023-04-20T07:47:37.867Z,12.36
2023-04-20T07:50:43.587Z,12.44
2023-04-20T07:53:49.226Z,12.24
2023-04-20T07:56:55.118Z,12.23
2023-04-20T08:00:00.668Z,12.24
2023-04-20T08:03:06.770Z,12.26
2023-04-20T08:06:12.490Z,12.20
2023-04-20T08:09:17.991Z,12.23
2023-04-20T08:12:24.023Z,12.24
2023-04-20T08:15:29.965Z,12.24
2023-04-20T08:18:35.503Z,12.14
2023-04-20T08:21:41.799Z,12.17
2023-04-20T08:24:47.861Z,12.21
2023-04-20T08:27:53.267Z,12.26
2023-04-20T08:30:58.814Z,12.28
2023-04-20T08:34:04.448Z,12.35
2023-04-20T08:37:09.938Z,12.35
2023-04-20T08:40:17.550Z,12.64
2023-04-20T08:43:23.464Z,12.53
2023-04-20T08:46:29.737Z,12.61
2023-04-20T08:49:36.306Z,12.57
2023-04-20T08:52:42.262Z,12.68
2023-04-20T08:55:49.974Z,12.59
2023-04-20T08:58:57.958Z,12.46
2023-04-20T09:02:14.007Z,12.27
2023-04-20T09:05:28.385Z,12.23
2023-04-20T09:08:42.620Z,12.31
2023-04-20T09:11:48.716Z,12.19
2023-04-20T09:14:54.364Z,12.30
2023-04-20T09:17:59.840Z,12.16
2023-04-20T09:21:11.132Z,12.33
2023-04-20T09:24:17.396Z,12.49
2023-04-20T09:27:23.702Z,12.62
2023-04-20T09:30:40.615Z,12.72
2023-04-20T09:33:55.815Z,12.78
2023-04-20T09:37:01.160Z,12.92
2023-04-20T09:40:08.033Z,13.20
2023-04-20T09:43:19.933Z,13.28
2023-04-20T09:46:29.053Z,13.19
2023-04-20T09:49:35.366Z,13.22
2023-04-20T09:52:41.472Z,13.14
2023-04-20T09:55:49.082Z,12.99
2023-04-20T09:58:56.610Z,12.80
2023-04-20T10:02:02.192Z,12.69
2023-04-20T10:05:08.152Z,12.76
2023-04-20T10:08:14.679Z,12.73
2023-04-20T10:11:44.428Z,12.69
2023-04-20T10:14:56.455Z,12.71
2023-04-20T10:18:02.013Z,12.79
2023-04-20T10:21:11.504Z,12.86
2023-04-20T10:24:30.123Z,12.80
2023-04-20T10:27:35.971Z,12.65
2023-04-20T10:30:51.895Z,12.73
2023-04-20T10:33:57.443Z,12.70
2023-04-20T10:37:11.411Z,12.49
2023-04-20T10:40:17.932Z,12.41
2023-04-20T10:43:23.913Z,12.47
2023-04-20T10:46:29.649Z,12.44
2023-04-20T10:49:35.163Z,12.37
2023-04-20T10:52:42.943Z,12.46
2023-04-20T10:55:58.236Z,12.44
2023-04-20T10:59:12.249Z,12.33
2023-04-20T11:02:17.709Z,12.39
2023-04-20T11:05:24.842Z,12.38
2023-04-20T11:08:56.946Z,12.35
2023-04-20T11:12:05.033Z,12.33
2023-04-20T11:15:10.767Z,12.47
2023-04-20T11:18:16.894Z,12.47
2023-04-20T11:21:23.432Z,12.56
2023-04-20T11:24:31.625Z,12.56
2023-04-20T11:27:39.092Z,12.82
2023-04-20T11:30:45.923Z,12.93
2023-04-20T11:33:51.450Z,12.94
2023-04-20T11:36:57.228Z,13.03
2023-04-20T11:40:10.598Z,13.02
2023-04-20T11:43:16.127Z,13.28
2023-04-20T11:46:21.691Z,13.43
2023-04-20T11:49:29.456Z,13.70
2023-04-20T11:52:34.881Z,13.65
2023-04-20T11:55:42.092Z,13.71
2023-04-20T11:58:48.101Z,13.77
2023-04-20T12:01:53.662Z,13.66
2023-04-20T12:05:02.442Z,13.79
2023-04-20T12:08:08.439Z,13.61
2023-04-20T12:11:17.098Z,13.83
2023-04-20T12:14:22.875Z,14.03
2023-04-20T12:17:28.731Z,14.20
2023-04-20T12:20:34.403Z,14.21
2023-04-20T12:23:40.780Z,14.02
2023-04-20T12:26:47.447Z,14.01
2023-04-20T12:29:53.188Z,14.14
2023-04-20T12:32:58.699Z,14.30
2023-04-20T12:36:04.504Z,14.22
2023-04-20T12:39:12.122Z,14.28
2023-04-20T12:42:17.699Z,14.59
2023-04-20T12:45:23.644Z,14.59
2023-04-20T12:48:29.077Z,14.50
2023-04-20T12:51:34.451Z,14.50
2023-04-20T12:54:42.734Z,14.60
2023-04-20T12:57:49.556Z,14.86
2023-04-20T13:00:55.731Z,14.72
2023-04-20T13:04:01.612Z,14.58
2023-04-20T13:07:07.485Z,14.60
2023-04-20T13:10:13.250Z,14.85
2023-04-20T13:13:18.731Z,14.74
2023-04-20T13:16:24.644Z,14.59
2023-04-20T13:19:31.384Z,14.52
2023-04-20T13:22:50.398Z,15.02
2023-04-20T13:26:02.387Z,14.59
2023-04-20T13:29:08.412Z,14.54
2023-04-20T13:32:13.964Z,14.53
2023-04-20T13:35:19.593Z,14.45
2023-04-20T13:38:25.548Z,14.66
2023-04-20T13:41:31.304Z,14.84
2023-04-20T13:44:37.096Z,14.37
2023-04-20T13:47:42.728Z,14.47
2023-04-20T13:50:48.164Z,14.90
2023-04-20T13:53:53.520Z,14.79
2023-04-20T13:56:59.275Z,14.98
2023-04-20T14:00:05.596Z,14.98
2023-04-20T14:03:11.422Z,14.44
2023-04-20T14:06:17.253Z,14.28
2023-04-20T14:09:23.438Z,14.20
2023-04-20T14:12:29.261Z,14.75
2023-04-20T14:15:35.616Z,14.78
2023-04-20T14:18:41.803Z,14.57
2023-04-20T14:21:47.687Z,14.72
2023-04-20T14:24:53.324Z,14.37
2023-04-20T14:27:59.206Z,14.42
2023-04-20T14:31:04.930Z,14.07
2023-04-20T14:34:10.399Z,14.03
2023-04-20T14:37:15.906Z,14.12
2023-04-20T14:40:22.049Z,13.86
2023-04-20T14:43:27.993Z,13.81
2023-04-20T14:46:33.901Z,13.73
2023-04-20T14:49:39.865Z,13.86
2023-04-20T14:52:45.700Z,13.76
2023-04-20T14:55:51.717Z,13.61
2023-04-20T14:58:59.922Z,13.67
2023-04-20T15:02:06.137Z,13.58
2023-04-20T15:05:11.866Z,13.65
2023-04-20T15:08:17.709Z,13.47
2023-04-20T15:11:23.209Z,13.58
2023-04-20T15:14:29.140Z,13.37
2023-04-20T15:17:35.150Z,13.48
2023-04-20T15:20:40.601Z,13.25
2023-04-20T15:23:46.475Z,13.22
2023-04-20T15:26:51.996Z,13.24
2023-04-20T15:29:58.929Z,13.39
2023-04-20T15:33:05.614Z,13.48
2023-04-20T15:36:11.484Z,13.47
2023-04-20T15:39:17.038Z,13.38
2023-04-20T15:42:23.328Z,13.30
2023-04-20T15:45:31.362Z,13.32
2023-04-20T15:48:37.789Z,13.47
2023-04-20T15:51:44.442Z,13.29
2023-04-20T15:54:51.238Z,13.28
2023-04-20T15:58:00.584Z,13.23
2023-04-20T16:01:06.069Z,13.10
2023-04-20T16:04:12.215Z,13.02
2023-04-20T16:07:17.938Z,12.93
2023-04-20T16:10:23.892Z,12.92
2023-04-20T16:13:30.158Z,13.12
2023-04-20T16:16:36.290Z,13.13
2023-04-20T16:19:42.379Z,13.29
2023-04-20T16:22:47.897Z,13.20
2023-04-20T16:25:53.558Z,12.89
2023-04-20T16:28:59.101Z,12.82
2023-04-20T16:32:04.928Z,12.69
2023-04-20T16:35:10.974Z,12.81
2023-04-20T16:38:16.608Z,12.82
2023-04-20T16:41:23.709Z,12.70
2023-04-20T16:44:29.684Z,12.60
2023-04-20T16:47:35.546Z,12.72
2023-04-20T16:50:42.245Z,12.70
2023-04-20T16:53:48.851Z,12.65
2023-04-20T16:56:54.780Z,12.50
2023-04-20T17:00:00.270Z,12.38
2023-04-20T17:03:10.979Z,12.51
2023-04-20T17:06:17.108Z,12.45
2023-04-20T17:09:23.437Z,12.44
2023-04-20T17:12:29.801Z,12.39
2023-04-20T17:15:35.492Z,12.39
2023-04-20T17:18:41.904Z,12.31
2023-04-20T17:21:47.909Z,12.27
2023-04-20T17:24:54.598Z,12.31
2023-04-20T17:28:00.077Z,12.11
2023-04-20T17:31:06.118Z,12.04
2023-04-20T17:34:11.628Z,12.05
2023-04-20T17:40:37.364Z,11.93
2023-04-20T17:43:42.965Z,11.85
2023-04-20T17:46:51.663Z,11.77
2023-04-20T17:49:57.451Z,11.76
2023-04-20T17:53:07.198Z,11.82
2023-04-20T17:56:12.350Z,11.62
2023-04-20T17:59:18.088Z,11.58
2023-04-20T18:02:25.373Z,11.61
2023-04-20T18:05:31.264Z,11.53
2023-04-20T18:08:36.835Z,11.44
2023-04-20T18:11:42.725Z,11.38
2023-04-20T18:14:48.260Z,11.43
2023-04-20T18:17:53.554Z,11.31
2023-04-20T18:20:58.791Z,11.42
2023-04-20T18:24:05.022Z,11.39
2023-04-20T18:27:10.853Z,11.27
2023-04-20T18:30:16.508Z,11.44
2023-04-20T18:33:22.387Z,11.25
2023-04-20T18:36:30.113Z,11.16
2023-04-20T18:39:35.716Z,11.29
2023-04-20T18:42:40.557Z,11.24
2023-04-20T18:45:45.692Z,11.18
2023-04-20T18:48:50.762Z,11.21
2023-04-20T18:51:56.457Z,11.21
2023-04-20T18:55:02.166Z,11.20
2023-04-20T18:58:08.172Z,11.22
2023-04-20T19:01:13.608Z,11.22
2023-04-20T19:04:19.798Z,11.27
2023-04-20T19:07:25.481Z,11.22
2023-04-20T19:10:32.471Z,11.20
2023-04-20T19:13:38.242Z,11.13
2023-04-20T19:16:44.080Z,11.14
2023-04-20T19:19:51.419Z,11.06
2023-04-20T19:22:56.773Z,11.21
2023-04-20T19:26:02.329Z,11.08
2023-04-20T19:29:07.970Z,11.06
2023-04-20T19:32:13.426Z,10.99
2023-04-20T19:35:19.194Z,11.00
2023-04-20T19:38:24.944Z,11.05
2023-04-20T19:41:30.694Z,10.94
2023-04-20T19:44:36.199Z,10.92
2023-04-20T19:47:41.937Z,10.86
2023-04-20T19:50:46.831Z,10.89
2023-04-20T19:53:52.394Z,10.86
2023-04-20T19:56:57.945Z,10.88
2023-04-20T20:00:05.131Z,10.89
2023-04-20T20:03:18.010Z,10.98
2023-04-20T20:06:24.084Z,10.95
2023-04-20T20:09:29.563Z,10.80
2023-04-20T20:12:35.134Z,10.85
2023-04-20T20:15:40.793Z,10.70
2023-04-20T20:18:48.049Z,10.64
2023-04-20T20:21:53.282Z,10.60
2023-04-20T20:24:59.391Z,10.60
2023-04-20T20:28:04.754Z,10.60
2023-04-20T20:31:10.158Z,10.60
2023-04-20T20:34:15.806Z,10.57
2023-04-20T20:37:21.606Z,10.60
2023-04-20T20:40:28.753Z,10.62
2023-04-20T20:43:34.733Z,10.61
2023-04-20T20:46:40.781Z,10.61
2023-04-20T20:49:46.324Z,10.66
2023-04-20T20:52:51.639Z,10.66
2023-04-20T20:55:57.277Z,10.54
2023-04-20T20:59:02.824Z,10.62
2023-04-20T21:02:08.148Z,10.59
2023-04-20T21:05:13.889Z,10.63
2023-04-20T21:08:19.651Z,10.66
2023-04-20T21:11:25.369Z,10.70
2023-04-20T21:14:31.050Z,10.68
2023-04-20T21:17:36.684Z,10.73
2023-04-20T21:20:41.623Z,10.78
2023-04-20T21:23:46.811Z,10.81
2023-04-20T21:26:52.821Z,10.80
2023-04-20T21:29:58.186Z,10.83
2023-04-20T21:33:03.815Z,10.83
2023-04-20T21:36:09.375Z,10.85
2023-04-20T21:39:14.368Z,10.87
2023-04-20T21:42:19.589Z,10.79
2023-04-20T21:45:24.701Z,10.80
2023-04-20T21:48:29.961Z,10.78
2023-04-20T21:51:35.565Z,10.80
2023-04-20T21:54:42.483Z,10.80
2023-04-20T21:57:47.973Z,10.80
2023-04-20T22:00:53.476Z,10.80
2023-04-20T22:03:59.213Z,10.79
2023-04-20T22:07:04.240Z,10.78
2023-04-20T22:10:09.916Z,10.92
2023-04-20T22:13:16.142Z,10.93
2023-04-20T22:16:22.184Z,10.93
2023-04-20T22:19:29.431Z,11.00
2023-04-20T22:22:36.340Z,10.94
2023-04-20T22:25:43.529Z,10.93
2023-04-20T22:28:49.183Z,11.01
2023-04-20T22:31:54.526Z,11.00
2023-04-20T22:34:59.848Z,11.00
2023-04-20T22:38:05.042Z,10.99
2023-04-20T22:41:10.169Z,11.03
2023-04-20T22:44:15.748Z,11.08
2023-04-20T22:47:20.966Z,11.01
2023-04-20T22:50:26.197Z,10.97
2023-04-20T22:53:32.094Z,10.99
2023-04-20T22:56:37.747Z,10.95
2023-04-20T22:59:42.827Z,10.94
2023-04-20T23:02:48.574Z,10.97
2023-04-20T23:05:54.268Z,10.98
2023-04-20T23:09:00.497Z,10.92
2023-04-20T23:12:10.624Z,10.93
2023-04-20T23:15:15.657Z,10.86
2023-04-20T23:18:21.285Z,10.81
2023-04-20T23:21:28.129Z,10.79
2023-04-20T23:24:33.420Z,10.77
2023-04-20T23:27:38.970Z,10.75
2023-04-20T23:30:44.687Z,10.79
2023-04-20T23:33:50.268Z,10.76
2023-04-20T23:36:55.399Z,10.80
2023-04-20T23:40:00.544Z,10.78
2023-04-20T23:43:05.777Z,10.74
2023-04-20T23:46:12.872Z,10.73
2023-04-20T23:49:18.712Z,10.72
2023-04-20T23:52:24.477Z,10.73
2023-04-20T23:55:29.921Z,10.77
2023-04-20T23:58:35.168Z,10.79
